createdAt,value
2022-08-28T00:02:27.923Z,17.74
2022-08-28T00:07:28.764Z,17.74
2022-08-28T00:12:31.555Z,17.71
2022-08-28T00:17:32.268Z,17.67
2022-08-28T00:22:32.961Z,17.64
2022-08-28T00:27:52.822Z,17.56
2022-08-28T00:32:55.437Z,17.58
2022-08-28T00:37:56.719Z,17.53
2022-08-28T00:43:00.331Z,17.46
2022-08-28T00:48:01.098Z,17.43
2022-08-28T00:53:02.317Z,17.36
2022-08-28T00:58:06.844Z,17.37
2022-08-28T01:03:08.648Z,17.32
2022-08-28T01:08:09.506Z,17.32
2022-08-28T01:13:14.912Z,17.21
2022-08-28T01:18:17.101Z,17.23
2022-08-28T01:23:26.138Z,17.27
2022-08-28T01:28:28.167Z,17.20
2022-08-28T01:33:28.913Z,17.05
2022-08-28T01:38:29.572Z,17.05
2022-08-28T01:43:31.822Z,16.96
2022-08-28T01:48:36.052Z,16.85
2022-08-28T01:53:37.061Z,16.81
2022-08-28T01:58:40.248Z,16.71
2022-08-28T02:03:43.131Z,16.68
2022-08-28T02:08:43.919Z,16.71
2022-08-28T02:13:45.912Z,16.79
2022-08-28T02:18:51.653Z,16.85
2022-08-28T02:23:52.698Z,16.84
2022-08-28T02:28:54.734Z,16.82
2022-08-28T02:33:55.921Z,16.84
2022-08-28T02:38:57.841Z,16.82
2022-08-28T02:44:00.083Z,16.82
2022-08-28T02:49:00.833Z,16.79
2022-08-28T02:54:02.806Z,16.83
2022-08-28T02:59:04.852Z,16.83
2022-08-28T03:04:06.355Z,16.80
2022-08-28T03:09:07.322Z,16.80
2022-08-28T03:14:09.460Z,16.76
2022-08-28T03:19:10.131Z,16.75
2022-08-28T03:24:10.971Z,16.76
2022-08-28T03:29:17.301Z,16.71
2022-08-28T03:34:17.985Z,16.68
2022-08-28T03:39:18.653Z,16.68
2022-08-28T03:44:20.641Z,16.67
2022-08-28T03:49:21.309Z,16.63
2022-08-28T03:54:21.968Z,16.59
2022-08-28T03:59:26.126Z,16.55
2022-08-28T04:04:32.476Z,16.53
2022-08-28T04:09:33.233Z,16.49
2022-08-28T04:14:35.734Z,16.43
2022-08-28T04:19:36.572Z,16.37
2022-08-28T04:24:37.352Z,16.40
2022-08-28T04:29:39.365Z,16.39
2022-08-28T04:34:40.477Z,16.37
2022-08-28T04:39:41.175Z,16.37
2022-08-28T04:44:43.281Z,16.34
2022-08-28T04:49:44.030Z,16.32
2022-08-28T04:54:44.706Z,16.27
2022-08-28T04:59:46.777Z,16.23
2022-08-28T05:04:47.707Z,16.19
2022-08-28T05:09:48.400Z,16.21
2022-08-28T05:14:50.863Z,16.13
2022-08-28T05:19:52.308Z,16.12
2022-08-28T05:24:52.977Z,16.12
2022-08-28T05:29:58.524Z,16.15
2022-08-28T05:35:02.367Z,16.09
2022-08-28T05:40:03.513Z,16.04
2022-08-28T05:45:06.659Z,15.89
2022-08-28T05:50:08.942Z,15.84
2022-08-28T05:55:12.976Z,15.78
2022-08-28T06:00:15.977Z,15.77
2022-08-28T06:05:16.934Z,15.73
2022-08-28T06:10:17.731Z,15.75
2022-08-28T06:15:21.231Z,15.91
2022-08-28T06:20:21.903Z,15.92
2022-08-28T06:25:22.680Z,16.02
2022-08-28T06:30:24.683Z,16.13
2022-08-28T06:35:25.356Z,16.16
2022-08-28T06:40:26.667Z,16.23
2022-08-28T06:45:28.792Z,16.28
2022-08-28T06:50:29.733Z,16.37
2022-08-28T06:55:30.421Z,16.42
2022-08-28T07:00:32.735Z,16.51
2022-08-28T07:05:34.010Z,16.65
2022-08-28T07:10:34.741Z,16.63
2022-08-28T07:15:36.821Z,16.49
2022-08-28T07:20:42.566Z,16.54
2022-08-28T07:25:43.235Z,16.62
2022-08-28T07:30:45.774Z,16.68
2022-08-28T07:35:47.121Z,16.79
2022-08-28T07:40:48.219Z,17.05
2022-08-28T07:45:59.825Z,17.32
2022-08-28T07:51:00.597Z,17.02
2022-08-28T07:56:01.263Z,17.24
2022-08-28T08:01:03.305Z,17.21
2022-08-28T08:06:05.678Z,17.14
2022-08-28T08:11:11.258Z,16.99
2022-08-28T08:16:18.977Z,17.02
2022-08-28T08:21:22.333Z,17.21
2022-08-28T08:26:25.664Z,17.38
2022-08-28T08:31:32.341Z,17.38
2022-08-28T08:36:35.099Z,17.36
2022-08-28T08:41:48.938Z,17.48
2022-08-28T08:47:04.492Z,17.42
2022-08-28T08:52:24.364Z,17.53
2022-08-28T08:57:25.269Z,17.65
2022-08-28T09:02:34.680Z,17.67
2022-08-28T09:07:39.998Z,17.73
2022-08-28T09:12:51.234Z,17.72
2022-08-28T09:17:58.289Z,18.02
2022-08-28T09:22:59.048Z,17.99
2022-08-28T09:28:07.850Z,18.15
2022-08-28T09:33:10.083Z,18.51
2022-08-28T09:38:19.817Z,18.55
2022-08-28T09:43:28.825Z,18.51
2022-08-28T09:48:36.748Z,18.55
2022-08-28T09:53:44.047Z,18.55
2022-08-28T09:58:48.091Z,18.37
2022-08-28T10:03:54.489Z,18.60
2022-08-28T10:09:03.614Z,18.74
2022-08-28T10:14:19.894Z,19.26
2022-08-28T10:19:33.055Z,19.61
2022-08-28T10:24:57.258Z,19.70
2022-08-28T10:30:08.919Z,19.67
2022-08-28T10:35:17.136Z,19.88
2022-08-28T10:40:24.624Z,19.88
2022-08-28T10:45:27.281Z,19.90
2022-08-28T10:50:35.728Z,19.75
2022-08-28T10:55:39.909Z,19.61
2022-08-28T11:00:43.158Z,19.53
2022-08-28T11:05:53.798Z,19.75
2022-08-28T11:10:56.299Z,19.89
2022-08-28T11:15:57.319Z,19.84
2022-08-28T11:21:12.232Z,19.80
2022-08-28T11:26:15.864Z,19.93
2022-08-28T11:31:38.912Z,19.96
2022-08-28T11:37:01.751Z,20.02
2022-08-28T11:42:38.424Z,19.91
2022-08-28T11:47:56.323Z,20.10
2022-08-28T11:53:36.462Z,20.56
2022-08-28T11:58:45.582Z,20.30
2022-08-28T12:03:57.524Z,20.15
2022-08-28T12:09:07.309Z,20.30
2022-08-28T12:14:10.312Z,20.30
2022-08-28T12:19:11.490Z,20.30
2022-08-28T12:24:22.347Z,20.83
2022-08-28T12:29:30.321Z,20.89
2022-08-28T12:34:41.022Z,20.88
2022-08-28T12:39:43.507Z,20.88
2022-08-28T12:44:47.053Z,20.99
2022-08-28T12:49:47.909Z,20.84
2022-08-28T12:54:51.202Z,21.13
2022-08-28T12:59:55.706Z,21.14
2022-08-28T13:04:59.449Z,21.48
2022-08-28T13:10:05.889Z,21.80
2022-08-28T13:15:10.041Z,21.54
2022-08-28T13:20:11.125Z,21.65
2022-08-28T13:25:22.645Z,21.39
2022-08-28T13:30:27.426Z,21.41
2022-08-28T13:35:41.187Z,21.34
2022-08-28T13:41:02.881Z,21.28
2022-08-28T13:46:05.372Z,21.59
2022-08-28T13:51:10.837Z,21.96
2022-08-28T13:56:12.861Z,22.14
2022-08-28T14:01:18.059Z,22.43
2022-08-28T14:06:23.737Z,22.43
2022-08-28T14:11:33.295Z,22.43
2022-08-28T14:16:39.613Z,23.46
2022-08-28T14:21:41.888Z,23.44
2022-08-28T14:26:42.675Z,23.33
2022-08-28T14:31:46.498Z,22.83
2022-08-28T14:36:50.856Z,23.02
2022-08-28T14:41:52.040Z,23.44
2022-08-28T14:46:57.108Z,23.08
2022-08-28T14:51:58.218Z,22.71
2022-08-28T14:56:58.967Z,22.50
2022-08-28T15:02:02.113Z,22.83
2022-08-28T15:07:06.485Z,22.97
2022-08-28T15:12:07.731Z,23.26
2022-08-28T15:17:09.803Z,23.58
2022-08-28T15:22:10.735Z,23.06
2022-08-28T15:27:11.702Z,22.86
2022-08-28T15:32:13.771Z,22.92
2022-08-28T15:37:14.448Z,23.31
2022-08-28T15:42:15.615Z,23.42
2022-08-28T15:47:17.608Z,23.27
2022-08-28T15:52:19.501Z,23.46
2022-08-28T15:57:20.230Z,23.57
2022-08-28T16:02:24.500Z,23.60
2022-08-28T16:07:25.675Z,23.43
2022-08-28T16:12:26.497Z,23.49
2022-08-28T16:17:28.580Z,22.97
2022-08-28T16:22:29.420Z,22.83
2022-08-28T16:27:30.226Z,22.90
2022-08-28T16:32:32.261Z,22.74
2022-08-28T16:37:39.662Z,22.74
2022-08-28T16:42:41.431Z,22.94
2022-08-28T16:47:44.522Z,22.92
2022-08-28T16:52:45.197Z,23.55
2022-08-28T16:57:45.897Z,24.12
2022-08-28T17:02:47.992Z,24.55
2022-08-28T17:07:50.151Z,24.52
2022-08-28T17:12:50.976Z,24.89
2022-08-28T17:17:52.972Z,24.32
2022-08-28T17:22:53.670Z,24.08
2022-08-28T17:27:54.473Z,23.84
2022-08-28T17:32:56.566Z,23.31
2022-08-28T17:37:57.656Z,22.51
2022-08-28T17:42:58.430Z,21.71
2022-08-28T17:48:00.507Z,21.26
2022-08-28T17:53:01.253Z,20.96
2022-08-28T17:58:02.667Z,20.70
2022-08-28T18:03:04.671Z,20.57
2022-08-28T18:08:05.721Z,20.29
2022-08-28T18:13:07.305Z,20.21
2022-08-28T18:18:09.684Z,20.08
2022-08-28T18:23:11.110Z,19.88
2022-08-28T18:28:15.682Z,19.70
2022-08-28T18:33:22.226Z,19.67
2022-08-28T18:38:25.523Z,19.62
2022-08-28T18:43:26.205Z,19.55
2022-08-28T18:48:29.743Z,19.30
2022-08-28T18:53:30.432Z,19.19
2022-08-28T18:58:31.204Z,19.15
2022-08-28T19:03:35.210Z,19.02
2022-08-28T19:08:37.735Z,18.91
2022-08-28T19:13:38.582Z,18.80
2022-08-28T19:18:40.800Z,18.78
2022-08-28T19:23:41.670Z,18.66
2022-08-28T19:28:52.580Z,18.61
2022-08-28T19:33:54.698Z,18.63
2022-08-28T19:38:55.596Z,18.54
2022-08-28T19:43:56.482Z,18.33
2022-08-28T19:48:58.848Z,18.28
2022-08-28T19:54:00.125Z,18.22
2022-08-28T19:59:03.055Z,17.99
2022-08-28T20:04:07.419Z,17.84
2022-08-28T20:09:12.576Z,17.72
2022-08-28T20:14:14.454Z,17.61
2022-08-28T20:19:16.768Z,17.46
2022-08-28T20:24:23.631Z,17.31
2022-08-28T20:29:24.719Z,17.23
2022-08-28T20:34:27.425Z,17.08
2022-08-28T20:39:28.469Z,16.97
2022-08-28T20:44:29.348Z,16.90
2022-08-28T20:49:31.382Z,16.94
2022-08-28T20:54:34.800Z,16.88
2022-08-28T20:59:40.207Z,16.73
2022-08-28T21:04:43.619Z,16.54
2022-08-28T21:10:06.261Z,16.45
2022-08-28T21:15:09.020Z,16.40
2022-08-28T21:20:14.264Z,16.31
2022-08-28T21:25:16.042Z,16.20
2022-08-28T21:30:19.365Z,16.14
2022-08-28T21:35:21.586Z,16.07
2022-08-28T21:40:22.458Z,16.07
2022-08-28T21:45:23.223Z,16.05
2022-08-28T21:50:29.058Z,15.98
2022-08-28T21:55:29.895Z,15.98
2022-08-28T22:00:31.445Z,15.85
2022-08-28T22:05:33.478Z,15.78
2022-08-28T22:10:36.417Z,15.71
2022-08-28T22:15:41.984Z,15.66
2022-08-28T22:20:59.542Z,15.66
2022-08-28T22:26:02.896Z,15.65
2022-08-28T22:31:03.625Z,15.60
2022-08-28T22:36:09.905Z,15.53
2022-08-28T22:41:10.897Z,15.48
2022-08-28T22:46:12.429Z,15.43
2022-08-28T22:51:18.313Z,15.36
2022-08-28T22:56:19.128Z,15.27
2022-08-28T23:01:24.441Z,15.24
2022-08-28T23:06:26.454Z,15.28
2022-08-28T23:11:27.301Z,15.26
2022-08-28T23:16:28.168Z,15.22
2022-08-28T23:21:30.266Z,15.08
2022-08-28T23:26:31.119Z,15.06
2022-08-28T23:31:31.833Z,14.99
2022-08-28T23:36:35.858Z,15.01
2022-08-28T23:41:37.211Z,14.94
2022-08-28T23:46:41.068Z,14.90
2022-08-28T23:51:43.909Z,14.95
2022-08-28T23:56:45.533Z,14.88
